sensor_id;sensor_type;location;lat;lon;timestamp;P1;durP1;ratioP1;P2;durP2;ratioP2
33327;SDS011;19692;52.998;9.116;2022-08-18T00:00:38;18.97;;;17.20;;
33327;SDS011;19692;52.998;9.116;2022-08-18T00:03:05;19.83;;;18.03;;
33327;SDS011;19692;52.998;9.116;2022-08-18T00:05:32;20.47;;;18.27;;
33327;SDS011;19692;52.998;9.116;2022-08-18T00:07:58;19.63;;;17.83;;
33327;SDS011;19692;52.998;9.116;2022-08-18T00:10:25;19.13;;;17.40;;
33327;SDS011;19692;52.998;9.116;2022-08-18T00:12:51;20.10;;;18.30;;
33327;SDS011;19692;52.998;9.116;2022-08-18T00:15:18;19.33;;;17.63;;
33327;SDS011;19692;52.998;9.116;2022-08-18T00:17:45;19.93;;;17.83;;
33327;SDS011;19692;52.998;9.116;2022-08-18T00:20:12;18.57;;;16.83;;
33327;SDS011;19692;52.998;9.116;2022-08-18T00:22:43;21.00;;;18.90;;
33327;SDS011;19692;52.998;9.116;2022-08-18T00:25:10;19.93;;;18.23;;
33327;SDS011;19692;52.998;9.116;2022-08-18T00:27:38;18.63;;;16.77;;
33327;SDS011;19692;52.998;9.116;2022-08-18T00:30:06;18.83;;;17.00;;
33327;SDS011;19692;52.998;9.116;2022-08-18T00:32:38;19.43;;;17.43;;
33327;SDS011;19692;52.998;9.116;2022-08-18T00:35:08;20.13;;;18.23;;
33327;SDS011;19692;52.998;9.116;2022-08-18T00:37:42;19.13;;;17.43;;
33327;SDS011;19692;52.998;9.116;2022-08-18T00:40:13;19.27;;;17.47;;
33327;SDS011;19692;52.998;9.116;2022-08-18T00:42:51;19.30;;;17.50;;
33327;SDS011;19692;52.998;9.116;2022-08-18T00:45:21;19.37;;;17.57;;
33327;SDS011;19692;52.998;9.116;2022-08-18T00:47:51;19.27;;;17.60;;
33327;SDS011;19692;52.998;9.116;2022-08-18T00:50:20;18.13;;;16.53;;
33327;SDS011;19692;52.998;9.116;2022-08-18T00:53:08;19.80;;;17.77;;
33327;SDS011;19692;52.998;9.116;2022-08-18T00:55:43;19.60;;;17.90;;
33327;SDS011;19692;52.998;9.116;2022-08-18T00:58:14;19.77;;;17.87;;
33327;SDS011;19692;52.998;9.116;2022-08-18T01:00:53;18.17;;;16.57;;
33327;SDS011;19692;52.998;9.116;2022-08-18T01:03:20;18.63;;;17.03;;
33327;SDS011;19692;52.998;9.116;2022-08-18T01:05:49;19.53;;;17.80;;
33327;SDS011;19692;52.998;9.116;2022-08-18T01:08:23;19.90;;;18.17;;
33327;SDS011;19692;52.998;9.116;2022-08-18T01:10:50;20.77;;;18.80;;
33327;SDS011;19692;52.998;9.116;2022-08-18T01:13:16;22.27;;;20.03;;
33327;SDS011;19692;52.998;9.116;2022-08-18T01:15:42;23.17;;;21.03;;
33327;SDS011;19692;52.998;9.116;2022-08-18T01:18:09;22.33;;;20.43;;
33327;SDS011;19692;52.998;9.116;2022-08-18T01:24:08;23.30;;;21.10;;
33327;SDS011;19692;52.998;9.116;2022-08-18T01:26:37;23.83;;;21.73;;
33327;SDS011;19692;52.998;9.116;2022-08-18T01:29:14;24.53;;;22.30;;
33327;SDS011;19692;52.998;9.116;2022-08-18T01:31:46;25.20;;;22.80;;
33327;SDS011;19692;52.998;9.116;2022-08-18T01:34:19;25.93;;;23.33;;
33327;SDS011;19692;52.998;9.116;2022-08-18T01:36:49;26.30;;;23.80;;
33327;SDS011;19692;52.998;9.116;2022-08-18T01:39:16;25.20;;;22.97;;
33327;SDS011;19692;52.998;9.116;2022-08-18T01:41:43;25.37;;;22.90;;
33327;SDS011;19692;52.998;9.116;2022-08-18T01:44:09;27.90;;;25.37;;
33327;SDS011;19692;52.998;9.116;2022-08-18T01:46:35;25.63;;;23.37;;
33327;SDS011;19692;52.998;9.116;2022-08-18T01:49:03;27.63;;;24.93;;
33327;SDS011;19692;52.998;9.116;2022-08-18T01:51:30;26.77;;;24.20;;
33327;SDS011;19692;52.998;9.116;2022-08-18T01:53:59;28.80;;;26.00;;
33327;SDS011;19692;52.998;9.116;2022-08-18T01:56:25;29.30;;;25.93;;
33327;SDS011;19692;52.998;9.116;2022-08-18T01:58:52;31.33;;;28.23;;
33327;SDS011;19692;52.998;9.116;2022-08-18T02:01:19;30.53;;;27.50;;
33327;SDS011;19692;52.998;9.116;2022-08-18T02:03:53;34.63;;;31.03;;
33327;SDS011;19692;52.998;9.116;2022-08-18T02:06:21;42.50;;;37.17;;
33327;SDS011;19692;52.998;9.116;2022-08-18T02:08:47;41.07;;;36.70;;
33327;SDS011;19692;52.998;9.116;2022-08-18T02:11:13;44.00;;;39.40;;
33327;SDS011;19692;52.998;9.116;2022-08-18T02:13:39;47.57;;;41.90;;
33327;SDS011;19692;52.998;9.116;2022-08-18T02:16:05;49.27;;;43.33;;
33327;SDS011;19692;52.998;9.116;2022-08-18T02:18:32;53.40;;;45.17;;
33327;SDS011;19692;52.998;9.116;2022-08-18T02:21:06;64.13;;;49.27;;
33327;SDS011;19692;52.998;9.116;2022-08-18T02:23:38;61.23;;;49.10;;
33327;SDS011;19692;52.998;9.116;2022-08-18T02:26:11;74.67;;;50.97;;
33327;SDS011;19692;52.998;9.116;2022-08-18T02:28:39;65.80;;;52.00;;
33327;SDS011;19692;52.998;9.116;2022-08-18T02:31:13;73.40;;;54.00;;
33327;SDS011;19692;52.998;9.116;2022-08-18T02:33:43;72.47;;;52.97;;
33327;SDS011;19692;52.998;9.116;2022-08-18T02:36:10;71.17;;;54.87;;
33327;SDS011;19692;52.998;9.116;2022-08-18T02:38:37;69.40;;;53.30;;
33327;SDS011;19692;52.998;9.116;2022-08-18T02:41:04;78.23;;;56.03;;
33327;SDS011;19692;52.998;9.116;2022-08-18T02:43:33;79.73;;;56.50;;
33327;SDS011;19692;52.998;9.116;2022-08-18T02:45:59;72.83;;;55.20;;
33327;SDS011;19692;52.998;9.116;2022-08-18T02:48:26;77.97;;;56.60;;
33327;SDS011;19692;52.998;9.116;2022-08-18T02:51:11;78.70;;;56.93;;
33327;SDS011;19692;52.998;9.116;2022-08-18T02:53:41;76.10;;;56.07;;
33327;SDS011;19692;52.998;9.116;2022-08-18T02:56:13;74.63;;;54.13;;
33327;SDS011;19692;52.998;9.116;2022-08-18T02:58:59;75.77;;;55.50;;
33327;SDS011;19692;52.998;9.116;2022-08-18T03:01:30;73.70;;;56.10;;
33327;SDS011;19692;52.998;9.116;2022-08-18T03:04:03;75.70;;;56.23;;
33327;SDS011;19692;52.998;9.116;2022-08-18T03:06:32;70.43;;;54.23;;
33327;SDS011;19692;52.998;9.116;2022-08-18T03:09:00;72.33;;;53.47;;
33327;SDS011;19692;52.998;9.116;2022-08-18T03:11:27;67.97;;;50.87;;
33327;SDS011;19692;52.998;9.116;2022-08-18T03:13:54;64.40;;;50.03;;
33327;SDS011;19692;52.998;9.116;2022-08-18T03:16:20;65.47;;;48.77;;
33327;SDS011;19692;52.998;9.116;2022-08-18T03:18:48;66.17;;;50.20;;
33327;SDS011;19692;52.998;9.116;2022-08-18T03:21:17;60.00;;;47.53;;
33327;SDS011;19692;52.998;9.116;2022-08-18T03:23:49;63.63;;;46.63;;
33327;SDS011;19692;52.998;9.116;2022-08-18T03:26:17;63.07;;;47.93;;
33327;SDS011;19692;52.998;9.116;2022-08-18T03:28:47;62.33;;;47.10;;
33327;SDS011;19692;52.998;9.116;2022-08-18T03:31:15;59.97;;;45.90;;
33327;SDS011;19692;52.998;9.116;2022-08-18T03:33:43;62.20;;;44.60;;
33327;SDS011;19692;52.998;9.116;2022-08-18T03:36:11;58.90;;;44.73;;
33327;SDS011;19692;52.998;9.116;2022-08-18T03:38:41;60.23;;;44.70;;
33327;SDS011;19692;52.998;9.116;2022-08-18T03:41:09;55.23;;;43.60;;
33327;SDS011;19692;52.998;9.116;2022-08-18T03:43:37;54.70;;;42.50;;
33327;SDS011;19692;52.998;9.116;2022-08-18T03:46:04;50.03;;;41.77;;
33327;SDS011;19692;52.998;9.116;2022-08-18T03:48:33;47.17;;;38.57;;
33327;SDS011;19692;52.998;9.116;2022-08-18T03:51:07;45.23;;;38.13;;
33327;SDS011;19692;52.998;9.116;2022-08-18T03:53:37;43.47;;;37.90;;
33327;SDS011;19692;52.998;9.116;2022-08-18T03:56:08;45.07;;;36.43;;
33327;SDS011;19692;52.998;9.116;2022-08-18T03:58:39;41.80;;;36.47;;
33327;SDS011;19692;52.998;9.116;2022-08-18T04:01:10;41.53;;;35.97;;
33327;SDS011;19692;52.998;9.116;2022-08-18T04:03:39;41.13;;;36.40;;
33327;SDS011;19692;52.998;9.116;2022-08-18T04:06:07;41.30;;;36.00;;
33327;SDS011;19692;52.998;9.116;2022-08-18T04:08:40;40.23;;;34.30;;
33327;SDS011;19692;52.998;9.116;2022-08-18T04:11:06;41.13;;;34.87;;
33327;SDS011;19692;52.998;9.116;2022-08-18T04:13:31;39.77;;;35.47;;
33327;SDS011;19692;52.998;9.116;2022-08-18T04:16:00;36.23;;;32.10;;
33327;SDS011;19692;52.998;9.116;2022-08-18T04:18:26;37.43;;;33.53;;
33327;SDS011;19692;52.998;9.116;2022-08-18T04:20:52;39.17;;;33.23;;
33327;SDS011;19692;52.998;9.116;2022-08-18T04:23:18;36.07;;;32.33;;
33327;SDS011;19692;52.998;9.116;2022-08-18T04:25:44;38.80;;;32.17;;
33327;SDS011;19692;52.998;9.116;2022-08-18T04:28:09;35.53;;;31.67;;
33327;SDS011;19692;52.998;9.116;2022-08-18T04:30:35;33.03;;;29.37;;
33327;SDS011;19692;52.998;9.116;2022-08-18T04:33:01;32.53;;;29.13;;
33327;SDS011;19692;52.998;9.116;2022-08-18T04:35:30;33.93;;;30.33;;
33327;SDS011;19692;52.998;9.116;2022-08-18T04:37:55;33.50;;;29.90;;
33327;SDS011;19692;52.998;9.116;2022-08-18T04:40:21;33.33;;;29.70;;
33327;SDS011;19692;52.998;9.116;2022-08-18T04:42:47;44.47;;;39.70;;
33327;SDS011;19692;52.998;9.116;2022-08-18T04:45:13;36.37;;;32.43;;
33327;SDS011;19692;52.998;9.116;2022-08-18T04:47:38;33.07;;;29.57;;
33327;SDS011;19692;52.998;9.116;2022-08-18T04:50:07;32.47;;;29.07;;
33327;SDS011;19692;52.998;9.116;2022-08-18T04:52:33;33.70;;;29.90;;
33327;SDS011;19692;52.998;9.116;2022-08-18T04:55:18;32.93;;;29.20;;
33327;SDS011;19692;52.998;9.116;2022-08-18T04:57:43;32.57;;;29.13;;
33327;SDS011;19692;52.998;9.116;2022-08-18T05:00:09;33.43;;;28.10;;
33327;SDS011;19692;52.998;9.116;2022-08-18T05:02:37;32.07;;;28.70;;
33327;SDS011;19692;52.998;9.116;2022-08-18T05:05:03;31.77;;;28.33;;
33327;SDS011;19692;52.998;9.116;2022-08-18T05:07:29;31.03;;;27.73;;
33327;SDS011;19692;52.998;9.116;2022-08-18T05:09:55;31.60;;;27.60;;
33327;SDS011;19692;52.998;9.116;2022-08-18T05:12:21;32.13;;;28.73;;
33327;SDS011;19692;52.998;9.116;2022-08-18T05:14:47;32.63;;;29.33;;
33327;SDS011;19692;52.998;9.116;2022-08-18T05:17:13;31.07;;;27.63;;
33327;SDS011;19692;52.998;9.116;2022-08-18T05:19:40;30.47;;;27.17;;
33327;SDS011;19692;52.998;9.116;2022-08-18T05:22:08;31.23;;;27.93;;
33327;SDS011;19692;52.998;9.116;2022-08-18T05:24:35;32.83;;;28.63;;
33327;SDS011;19692;52.998;9.116;2022-08-18T05:27:01;31.80;;;27.57;;
33327;SDS011;19692;52.998;9.116;2022-08-18T05:29:28;33.87;;;29.40;;
33327;SDS011;19692;52.998;9.116;2022-08-18T05:32:00;31.83;;;28.47;;
33327;SDS011;19692;52.998;9.116;2022-08-18T05:34:28;32.67;;;29.00;;
33327;SDS011;19692;52.998;9.116;2022-08-18T05:37:00;32.27;;;28.77;;
33327;SDS011;19692;52.998;9.116;2022-08-18T05:42:23;32.07;;;28.17;;
33327;SDS011;19692;52.998;9.116;2022-08-18T05:44:53;32.73;;;29.33;;
33327;SDS011;19692;52.998;9.116;2022-08-18T05:47:29;31.33;;;28.03;;
33327;SDS011;19692;52.998;9.116;2022-08-18T05:49:57;30.63;;;26.87;;
33327;SDS011;19692;52.998;9.116;2022-08-18T05:52:39;31.17;;;27.83;;
33327;SDS011;19692;52.998;9.116;2022-08-18T05:58:45;30.70;;;27.50;;
33327;SDS011;19692;52.998;9.116;2022-08-18T06:01:17;30.93;;;27.63;;
33327;SDS011;19692;52.998;9.116;2022-08-18T06:03:57;31.23;;;27.63;;
33327;SDS011;19692;52.998;9.116;2022-08-18T06:06:31;30.83;;;27.57;;
33327;SDS011;19692;52.998;9.116;2022-08-18T06:09:02;33.13;;;28.37;;
33327;SDS011;19692;52.998;9.116;2022-08-18T06:11:40;34.73;;;28.03;;
33327;SDS011;19692;52.998;9.116;2022-08-18T06:14:06;31.93;;;28.03;;
33327;SDS011;19692;52.998;9.116;2022-08-18T06:16:37;30.87;;;27.57;;
33327;SDS011;19692;52.998;9.116;2022-08-18T06:19:44;34.00;;;27.73;;
33327;SDS011;19692;52.998;9.116;2022-08-18T06:25:50;34.53;;;27.30;;
33327;SDS011;19692;52.998;9.116;2022-08-18T06:28:31;33.70;;;26.90;;
33327;SDS011;19692;52.998;9.116;2022-08-18T06:31:13;35.37;;;26.73;;
33327;SDS011;19692;52.998;9.116;2022-08-18T06:41:53;31.97;;;27.43;;
33327;SDS011;19692;52.998;9.116;2022-08-18T06:46:54;32.23;;;24.47;;
33327;SDS011;19692;52.998;9.116;2022-08-18T06:52:29;28.97;;;22.77;;
33327;SDS011;19692;52.998;9.116;2022-08-18T06:55:02;27.67;;;23.60;;
33327;SDS011;19692;52.998;9.116;2022-08-18T06:57:34;24.83;;;21.60;;
33327;SDS011;19692;52.998;9.116;2022-08-18T07:07:39;21.07;;;18.80;;
33327;SDS011;19692;52.998;9.116;2022-08-18T07:13:05;22.77;;;18.97;;
33327;SDS011;19692;52.998;9.116;2022-08-18T07:16:03;24.17;;;19.97;;
33327;SDS011;19692;52.998;9.116;2022-08-18T07:18:42;21.27;;;18.27;;
33327;SDS011;19692;52.998;9.116;2022-08-18T07:21:08;23.07;;;19.97;;
33327;SDS011;19692;52.998;9.116;2022-08-18T07:26:59;19.03;;;16.87;;
33327;SDS011;19692;52.998;9.116;2022-08-18T07:29:57;22.73;;;17.47;;
33327;SDS011;19692;52.998;9.116;2022-08-18T07:32:32;19.63;;;17.03;;
33327;SDS011;19692;52.998;9.116;2022-08-18T07:35:16;20.73;;;16.77;;
33327;SDS011;19692;52.998;9.116;2022-08-18T07:37:50;19.20;;;15.83;;
33327;SDS011;19692;52.998;9.116;2022-08-18T07:40:34;19.50;;;17.10;;
33327;SDS011;19692;52.998;9.116;2022-08-18T07:43:13;18.23;;;16.00;;
33327;SDS011;19692;52.998;9.116;2022-08-18T07:46:11;19.43;;;15.23;;
33327;SDS011;19692;52.998;9.116;2022-08-18T07:49:02;22.03;;;16.27;;
33327;SDS011;19692;52.998;9.116;2022-08-18T07:51:31;18.30;;;16.37;;
33327;SDS011;19692;52.998;9.116;2022-08-18T07:57:33;19.90;;;16.63;;
33327;SDS011;19692;52.998;9.116;2022-08-18T08:00:20;18.93;;;16.00;;
33327;SDS011;19692;52.998;9.116;2022-08-18T08:09:00;20.57;;;16.37;;
33327;SDS011;19692;52.998;9.116;2022-08-18T08:14:28;20.03;;;15.83;;
33327;SDS011;19692;52.998;9.116;2022-08-18T08:17:12;18.83;;;15.93;;
33327;SDS011;19692;52.998;9.116;2022-08-18T08:34:02;17.37;;;14.27;;
33327;SDS011;19692;52.998;9.116;2022-08-18T08:36:56;19.07;;;15.23;;
33327;SDS011;19692;52.998;9.116;2022-08-18T08:39:44;18.30;;;15.33;;
33327;SDS011;19692;52.998;9.116;2022-08-18T08:42:28;19.83;;;16.97;;
33327;SDS011;19692;52.998;9.116;2022-08-18T08:45:16;20.80;;;17.57;;
33327;SDS011;19692;52.998;9.116;2022-08-18T08:47:54;20.30;;;18.40;;
33327;SDS011;19692;52.998;9.116;2022-08-18T08:50:44;21.47;;;18.60;;
33327;SDS011;19692;52.998;9.116;2022-08-18T08:53:19;21.70;;;19.30;;
33327;SDS011;19692;52.998;9.116;2022-08-18T08:56:00;21.83;;;19.50;;
33327;SDS011;19692;52.998;9.116;2022-08-18T09:01:15;20.53;;;18.43;;
33327;SDS011;19692;52.998;9.116;2022-08-18T09:07:18;20.07;;;17.93;;
33327;SDS011;19692;52.998;9.116;2022-08-18T09:19:15;19.63;;;17.07;;
33327;SDS011;19692;52.998;9.116;2022-08-18T09:22:14;19.87;;;17.70;;
33327;SDS011;19692;52.998;9.116;2022-08-18T09:25:08;18.57;;;16.67;;
33327;SDS011;19692;52.998;9.116;2022-08-18T09:28:05;18.90;;;16.23;;
33327;SDS011;19692;52.998;9.116;2022-08-18T09:36:26;15.93;;;14.33;;
33327;SDS011;19692;52.998;9.116;2022-08-18T09:42:16;15.27;;;13.77;;
33327;SDS011;19692;52.998;9.116;2022-08-18T09:44:57;16.63;;;13.33;;
33327;SDS011;19692;52.998;9.116;2022-08-18T09:55:52;13.77;;;12.50;;
33327;SDS011;19692;52.998;9.116;2022-08-18T10:06:38;15.03;;;13.60;;
33327;SDS011;19692;52.998;9.116;2022-08-18T10:09:12;15.57;;;13.97;;
33327;SDS011;19692;52.998;9.116;2022-08-18T10:31:26;15.50;;;13.90;;
33327;SDS011;19692;52.998;9.116;2022-08-18T10:39:18;16.97;;;14.73;;
33327;SDS011;19692;52.998;9.116;2022-08-18T10:41:53;14.80;;;13.47;;
33327;SDS011;19692;52.998;9.116;2022-08-18T10:44:33;17.97;;;14.87;;
33327;SDS011;19692;52.998;9.116;2022-08-18T10:47:06;16.13;;;14.50;;
33327;SDS011;19692;52.998;9.116;2022-08-18T10:49:34;17.63;;;15.93;;
33327;SDS011;19692;52.998;9.116;2022-08-18T11:00:21;14.53;;;12.73;;
33327;SDS011;19692;52.998;9.116;2022-08-18T11:03:23;13.93;;;11.27;;
33327;SDS011;19692;52.998;9.116;2022-08-18T11:06:16;15.83;;;10.77;;
33327;SDS011;19692;52.998;9.116;2022-08-18T11:08:46;11.00;;;10.00;;
33327;SDS011;19692;52.998;9.116;2022-08-18T11:11:19;12.30;;;10.60;;
33327;SDS011;19692;52.998;9.116;2022-08-18T11:17:09;10.83;;;9.73;;
33327;SDS011;19692;52.998;9.116;2022-08-18T11:19:50;12.17;;;10.60;;
33327;SDS011;19692;52.998;9.116;2022-08-18T11:22:22;10.73;;;9.63;;
33327;SDS011;19692;52.998;9.116;2022-08-18T11:24:49;9.70;;;8.70;;
33327;SDS011;19692;52.998;9.116;2022-08-18T11:27:21;11.03;;;9.90;;
33327;SDS011;19692;52.998;9.116;2022-08-18T11:29:50;10.00;;;9.00;;
33327;SDS011;19692;52.998;9.116;2022-08-18T11:32:27;11.07;;;9.30;;
33327;SDS011;19692;52.998;9.116;2022-08-18T11:40:32;12.03;;;10.83;;
33327;SDS011;19692;52.998;9.116;2022-08-18T11:45:56;9.40;;;8.40;;
33327;SDS011;19692;52.998;9.116;2022-08-18T11:48:55;8.70;;;7.90;;
33327;SDS011;19692;52.998;9.116;2022-08-18T11:51:26;8.50;;;7.70;;
33327;SDS011;19692;52.998;9.116;2022-08-18T11:56:32;8.20;;;7.50;;
33327;SDS011;19692;52.998;9.116;2022-08-18T12:01:53;8.10;;;7.37;;
33327;SDS011;19692;52.998;9.116;2022-08-18T12:04:36;9.53;;;7.70;;
33327;SDS011;19692;52.998;9.116;2022-08-18T12:07:06;8.67;;;7.30;;
33327;SDS011;19692;52.998;9.116;2022-08-18T12:12:31;8.33;;;7.00;;
33327;SDS011;19692;52.998;9.116;2022-08-18T12:17:49;8.23;;;7.33;;
33327;SDS011;19692;52.998;9.116;2022-08-18T12:20:15;9.00;;;8.10;;
33327;SDS011;19692;52.998;9.116;2022-08-18T12:22:42;9.27;;;7.93;;
33327;SDS011;19692;52.998;9.116;2022-08-18T12:25:11;8.30;;;7.50;;
33327;SDS011;19692;52.998;9.116;2022-08-18T12:27:40;7.87;;;6.90;;
33327;SDS011;19692;52.998;9.116;2022-08-18T12:30:06;9.57;;;7.30;;
33327;SDS011;19692;52.998;9.116;2022-08-18T12:32:35;8.60;;;7.13;;
33327;SDS011;19692;52.998;9.116;2022-08-18T12:35:01;9.03;;;8.13;;
33327;SDS011;19692;52.998;9.116;2022-08-18T12:37:32;8.63;;;7.77;;
33327;SDS011;19692;52.998;9.116;2022-08-18T12:39:58;8.73;;;7.93;;
33327;SDS011;19692;52.998;9.116;2022-08-18T12:42:25;7.80;;;7.00;;
33327;SDS011;19692;52.998;9.116;2022-08-18T12:44:51;11.03;;;7.40;;
33327;SDS011;19692;52.998;9.116;2022-08-18T12:47:23;9.90;;;8.80;;
33327;SDS011;19692;52.998;9.116;2022-08-18T12:49:50;9.10;;;8.20;;
33327;SDS011;19692;52.998;9.116;2022-08-18T12:52:17;9.93;;;8.30;;
33327;SDS011;19692;52.998;9.116;2022-08-18T12:54:43;8.83;;;7.03;;
33327;SDS011;19692;52.998;9.116;2022-08-18T12:57:24;9.90;;;7.97;;
33327;SDS011;19692;52.998;9.116;2022-08-18T12:59:51;11.93;;;8.67;;
33327;SDS011;19692;52.998;9.116;2022-08-18T13:02:18;9.03;;;8.13;;
33327;SDS011;19692;52.998;9.116;2022-08-18T13:04:45;11.23;;;9.10;;
33327;SDS011;19692;52.998;9.116;2022-08-18T13:07:11;12.00;;;9.80;;
33327;SDS011;19692;52.998;9.116;2022-08-18T13:09:39;8.67;;;7.77;;
33327;SDS011;19692;52.998;9.116;2022-08-18T13:12:06;10.47;;;9.50;;
33327;SDS011;19692;52.998;9.116;2022-08-18T13:14:33;7.67;;;6.90;;
33327;SDS011;19692;52.998;9.116;2022-08-18T13:16:59;8.07;;;7.27;;
33327;SDS011;19692;52.998;9.116;2022-08-18T13:19:25;10.80;;;7.30;;
33327;SDS011;19692;52.998;9.116;2022-08-18T13:21:52;9.10;;;8.20;;
33327;SDS011;19692;52.998;9.116;2022-08-18T13:24:18;7.90;;;7.20;;
33327;SDS011;19692;52.998;9.116;2022-08-18T13:26:44;8.87;;;7.20;;
33327;SDS011;19692;52.998;9.116;2022-08-18T13:29:12;7.97;;;7.17;;
33327;SDS011;19692;52.998;9.116;2022-08-18T13:31:40;7.60;;;6.67;;
33327;SDS011;19692;52.998;9.116;2022-08-18T13:34:05;7.97;;;6.87;;
33327;SDS011;19692;52.998;9.116;2022-08-18T13:36:32;8.53;;;7.10;;
33327;SDS011;19692;52.998;9.116;2022-08-18T13:39:11;8.63;;;6.27;;
33327;SDS011;19692;52.998;9.116;2022-08-18T13:41:42;7.83;;;6.67;;
33327;SDS011;19692;52.998;9.116;2022-08-18T13:44:09;7.60;;;6.73;;
33327;SDS011;19692;52.998;9.116;2022-08-18T13:46:38;7.73;;;6.93;;
33327;SDS011;19692;52.998;9.116;2022-08-18T13:49:10;7.47;;;6.40;;
33327;SDS011;19692;52.998;9.116;2022-08-18T13:51:37;11.33;;;6.87;;
33327;SDS011;19692;52.998;9.116;2022-08-18T13:54:04;9.63;;;6.60;;
33327;SDS011;19692;52.998;9.116;2022-08-18T13:56:29;8.10;;;6.90;;
33327;SDS011;19692;52.998;9.116;2022-08-18T13:58:55;9.60;;;7.13;;
33327;SDS011;19692;52.998;9.116;2022-08-18T14:01:21;9.03;;;7.50;;
33327;SDS011;19692;52.998;9.116;2022-08-18T14:03:47;11.07;;;8.77;;
33327;SDS011;19692;52.998;9.116;2022-08-18T14:06:13;9.23;;;8.33;;
33327;SDS011;19692;52.998;9.116;2022-08-18T14:08:39;9.43;;;8.53;;
33327;SDS011;19692;52.998;9.116;2022-08-18T14:11:05;10.60;;;9.47;;
33327;SDS011;19692;52.998;9.116;2022-08-18T14:13:31;11.60;;;10.50;;
33327;SDS011;19692;52.998;9.116;2022-08-18T14:15:57;9.03;;;8.13;;
33327;SDS011;19692;52.998;9.116;2022-08-18T14:18:24;11.93;;;8.73;;
33327;SDS011;19692;52.998;9.116;2022-08-18T14:20:51;8.33;;;7.53;;
33327;SDS011;19692;52.998;9.116;2022-08-18T14:23:35;10.53;;;9.70;;
33327;SDS011;19692;52.998;9.116;2022-08-18T14:26:20;9.50;;;8.53;;
33327;SDS011;19692;52.998;9.116;2022-08-18T14:29:04;11.30;;;8.33;;
33327;SDS011;19692;52.998;9.116;2022-08-18T14:31:30;10.33;;;8.80;;
33327;SDS011;19692;52.998;9.116;2022-08-18T14:33:56;11.10;;;10.03;;
33327;SDS011;19692;52.998;9.116;2022-08-18T14:36:22;8.23;;;7.40;;
33327;SDS011;19692;52.998;9.116;2022-08-18T14:38:48;10.47;;;7.30;;
33327;SDS011;19692;52.998;9.116;2022-08-18T14:41:15;8.70;;;7.30;;
33327;SDS011;19692;52.998;9.116;2022-08-18T14:43:41;10.00;;;7.20;;
33327;SDS011;19692;52.998;9.116;2022-08-18T14:46:09;10.27;;;8.23;;
33327;SDS011;19692;52.998;9.116;2022-08-18T14:48:36;7.53;;;6.77;;
33327;SDS011;19692;52.998;9.116;2022-08-18T14:51:02;10.13;;;7.00;;
33327;SDS011;19692;52.998;9.116;2022-08-18T14:53:29;9.70;;;7.00;;
33327;SDS011;19692;52.998;9.116;2022-08-18T14:55:58;8.40;;;7.03;;
33327;SDS011;19692;52.998;9.116;2022-08-18T14:58:28;9.10;;;6.93;;
33327;SDS011;19692;52.998;9.116;2022-08-18T15:01:03;10.17;;;6.93;;
33327;SDS011;19692;52.998;9.116;2022-08-18T15:03:32;10.33;;;7.30;;
33327;SDS011;19692;52.998;9.116;2022-08-18T15:05:59;9.30;;;7.10;;
33327;SDS011;19692;52.998;9.116;2022-08-18T15:08:27;11.53;;;6.93;;
33327;SDS011;19692;52.998;9.116;2022-08-18T15:10:54;10.77;;;7.27;;
33327;SDS011;19692;52.998;9.116;2022-08-18T15:13:21;10.27;;;6.50;;
33327;SDS011;19692;52.998;9.116;2022-08-18T15:15:49;8.17;;;6.63;;
33327;SDS011;19692;52.998;9.116;2022-08-18T15:18:15;11.37;;;7.30;;
33327;SDS011;19692;52.998;9.116;2022-08-18T15:20:42;9.90;;;6.67;;
33327;SDS011;19692;52.998;9.116;2022-08-18T15:23:26;12.13;;;7.33;;
33327;SDS011;19692;52.998;9.116;2022-08-18T15:26:18;10.23;;;6.80;;
33327;SDS011;19692;52.998;9.116;2022-08-18T15:28:48;9.13;;;6.67;;
33327;SDS011;19692;52.998;9.116;2022-08-18T15:31:14;7.97;;;6.67;;
33327;SDS011;19692;52.998;9.116;2022-08-18T15:33:40;9.07;;;6.90;;
33327;SDS011;19692;52.998;9.116;2022-08-18T15:36:06;8.47;;;7.63;;
33327;SDS011;19692;52.998;9.116;2022-08-18T15:38:33;8.63;;;6.63;;
33327;SDS011;19692;52.998;9.116;2022-08-18T15:40:59;8.47;;;7.40;;
33327;SDS011;19692;52.998;9.116;2022-08-18T15:43:27;9.63;;;7.27;;
33327;SDS011;19692;52.998;9.116;2022-08-18T15:45:56;10.37;;;7.73;;
33327;SDS011;19692;52.998;9.116;2022-08-18T15:48:24;8.87;;;6.50;;
33327;SDS011;19692;52.998;9.116;2022-08-18T15:50:52;8.27;;;7.30;;
33327;SDS011;19692;52.998;9.116;2022-08-18T15:53:19;9.93;;;7.43;;
33327;SDS011;19692;52.998;9.116;2022-08-18T15:55:50;10.17;;;7.40;;
33327;SDS011;19692;52.998;9.116;2022-08-18T15:58:16;10.20;;;7.80;;
33327;SDS011;19692;52.998;9.116;2022-08-18T16:00:44;10.53;;;7.63;;
33327;SDS011;19692;52.998;9.116;2022-08-18T16:03:13;8.77;;;7.93;;
33327;SDS011;19692;52.998;9.116;2022-08-18T16:05:48;8.90;;;7.10;;
33327;SDS011;19692;52.998;9.116;2022-08-18T16:08:19;11.20;;;7.03;;
33327;SDS011;19692;52.998;9.116;2022-08-18T16:10:48;9.43;;;7.23;;
33327;SDS011;19692;52.998;9.116;2022-08-18T16:13:14;8.53;;;7.33;;
33327;SDS011;19692;52.998;9.116;2022-08-18T16:15:41;10.20;;;7.50;;
33327;SDS011;19692;52.998;9.116;2022-08-18T16:18:10;8.77;;;7.83;;
33327;SDS011;19692;52.998;9.116;2022-08-18T16:20:37;8.47;;;7.47;;
33327;SDS011;19692;52.998;9.116;2022-08-18T16:23:03;11.37;;;8.33;;
33327;SDS011;19692;52.998;9.116;2022-08-18T16:25:29;12.33;;;8.10;;
33327;SDS011;19692;52.998;9.116;2022-08-18T16:27:57;12.53;;;7.67;;
33327;SDS011;19692;52.998;9.116;2022-08-18T16:30:24;11.97;;;7.40;;
33327;SDS011;19692;52.998;9.116;2022-08-18T16:32:51;13.40;;;7.60;;
33327;SDS011;19692;52.998;9.116;2022-08-18T16:35:18;14.20;;;7.37;;
33327;SDS011;19692;52.998;9.116;2022-08-18T16:37:45;9.60;;;7.30;;
33327;SDS011;19692;52.998;9.116;2022-08-18T16:40:13;7.77;;;6.77;;
33327;SDS011;19692;52.998;9.116;2022-08-18T16:42:41;9.27;;;7.07;;
33327;SDS011;19692;52.998;9.116;2022-08-18T16:45:07;12.17;;;7.87;;
33327;SDS011;19692;52.998;9.116;2022-08-18T16:47:33;11.60;;;8.33;;
33327;SDS011;19692;52.998;9.116;2022-08-18T16:50:08;9.83;;;7.43;;
33327;SDS011;19692;52.998;9.116;2022-08-18T16:52:40;10.50;;;7.00;;
33327;SDS011;19692;52.998;9.116;2022-08-18T16:55:07;12.93;;;8.63;;
33327;SDS011;19692;52.998;9.116;2022-08-18T16:57:40;11.43;;;9.40;;
33327;SDS011;19692;52.998;9.116;2022-08-18T17:00:27;10.57;;;7.53;;
33327;SDS011;19692;52.998;9.116;2022-08-18T17:03:14;11.00;;;8.20;;
33327;SDS011;19692;52.998;9.116;2022-08-18T17:06:06;23.97;;;14.00;;
33327;SDS011;19692;52.998;9.116;2022-08-18T17:08:39;9.60;;;7.10;;
33327;SDS011;19692;52.998;9.116;2022-08-18T17:11:08;10.67;;;7.50;;
33327;SDS011;19692;52.998;9.116;2022-08-18T17:13:38;9.30;;;6.83;;
33327;SDS011;19692;52.998;9.116;2022-08-18T17:16:06;9.10;;;8.20;;
33327;SDS011;19692;52.998;9.116;2022-08-18T17:18:32;8.53;;;7.63;;
33327;SDS011;19692;52.998;9.116;2022-08-18T17:21:00;10.63;;;8.00;;
33327;SDS011;19692;52.998;9.116;2022-08-18T17:23:29;8.80;;;7.50;;
33327;SDS011;19692;52.998;9.116;2022-08-18T17:25:55;8.23;;;7.40;;
33327;SDS011;19692;52.998;9.116;2022-08-18T17:28:23;11.03;;;7.70;;
33327;SDS011;19692;52.998;9.116;2022-08-18T17:30:59;13.17;;;7.67;;
33327;SDS011;19692;52.998;9.116;2022-08-18T17:33:30;10.77;;;7.30;;
33327;SDS011;19692;52.998;9.116;2022-08-18T17:36:02;8.37;;;7.30;;
33327;SDS011;19692;52.998;9.116;2022-08-18T17:38:40;10.37;;;7.20;;